sensor_id;sensor_type;location;lat;lon;timestamp;P1;durP1;ratioP1;P2;durP2;ratioP2
68923;SDS011;55961;52.156;20.942;2023-11-21T00:00:35;19.48;;;8.50;;
68923;SDS011;55961;52.156;20.942;2023-11-21T00:03:21;24.85;;;10.13;;
68923;SDS011;55961;52.156;20.942;2023-11-21T00:05:49;28.93;;;11.10;;
68923;SDS011;55961;52.156;20.942;2023-11-21T00:08:14;24.25;;;10.27;;
68923;SDS011;55961;52.156;20.942;2023-11-21T00:10:40;23.85;;;10.65;;
68923;SDS011;55961;52.156;20.942;2023-11-21T00:13:06;24.33;;;9.57;;
68923;SDS011;55961;52.156;20.942;2023-11-21T00:15:33;29.17;;;11.75;;
68923;SDS011;55961;52.156;20.942;2023-11-21T00:17:59;27.25;;;11.68;;
68923;SDS011;55961;52.156;20.942;2023-11-21T00:20:25;29.83;;;11.40;;
68923;SDS011;55961;52.156;20.942;2023-11-21T00:22:51;27.73;;;11.27;;
68923;SDS011;55961;52.156;20.942;2023-11-21T00:25:17;33.75;;;11.23;;
68923;SDS011;55961;52.156;20.942;2023-11-21T00:27:43;27.65;;;10.98;;
68923;SDS011;55961;52.156;20.942;2023-11-21T00:30:09;26.57;;;11.03;;
68923;SDS011;55961;52.156;20.942;2023-11-21T00:32:36;27.55;;;11.85;;
68923;SDS011;55961;52.156;20.942;2023-11-21T00:35:02;26.92;;;11.27;;
68923;SDS011;55961;52.156;20.942;2023-11-21T00:37:29;31.40;;;11.93;;
68923;SDS011;55961;52.156;20.942;2023-11-21T00:39:56;33.13;;;11.77;;
68923;SDS011;55961;52.156;20.942;2023-11-21T00:42:22;27.50;;;11.70;;
68923;SDS011;55961;52.156;20.942;2023-11-21T00:44:48;26.70;;;12.38;;
68923;SDS011;55961;52.156;20.942;2023-11-21T00:47:14;27.50;;;11.27;;
68923;SDS011;55961;52.156;20.942;2023-11-21T00:49:40;35.43;;;12.87;;
68923;SDS011;55961;52.156;20.942;2023-11-21T00:52:06;31.20;;;12.68;;
68923;SDS011;55961;52.156;20.942;2023-11-21T00:54:32;32.40;;;13.25;;
68923;SDS011;55961;52.156;20.942;2023-11-21T00:56:58;31.27;;;11.77;;
68923;SDS011;55961;52.156;20.942;2023-11-21T00:59:25;30.03;;;11.43;;
68923;SDS011;55961;52.156;20.942;2023-11-21T01:01:51;31.50;;;12.32;;
68923;SDS011;55961;52.156;20.942;2023-11-21T01:04:17;38.50;;;13.75;;
68923;SDS011;55961;52.156;20.942;2023-11-21T01:06:43;35.47;;;12.93;;
68923;SDS011;55961;52.156;20.942;2023-11-21T01:09:09;41.87;;;14.77;;
68923;SDS011;55961;52.156;20.942;2023-11-21T01:11:35;32.15;;;13.63;;
68923;SDS011;55961;52.156;20.942;2023-11-21T01:14:03;31.20;;;12.10;;
68923;SDS011;55961;52.156;20.942;2023-11-21T01:16:29;33.23;;;13.67;;
68923;SDS011;55961;52.156;20.942;2023-11-21T01:18:58;35.28;;;13.55;;
68923;SDS011;55961;52.156;20.942;2023-11-21T01:21:24;34.10;;;13.73;;
68923;SDS011;55961;52.156;20.942;2023-11-21T01:23:51;32.30;;;12.65;;
68923;SDS011;55961;52.156;20.942;2023-11-21T01:26:16;36.73;;;14.37;;
68923;SDS011;55961;52.156;20.942;2023-11-21T01:28:42;33.47;;;13.10;;
68923;SDS011;55961;52.156;20.942;2023-11-21T01:31:08;32.90;;;13.95;;
68923;SDS011;55961;52.156;20.942;2023-11-21T01:33:34;31.80;;;12.97;;
68923;SDS011;55961;52.156;20.942;2023-11-21T01:36:00;33.33;;;13.45;;
68923;SDS011;55961;52.156;20.942;2023-11-21T01:38:26;34.17;;;13.30;;
68923;SDS011;55961;52.156;20.942;2023-11-21T01:40:52;33.10;;;13.30;;
68923;SDS011;55961;52.156;20.942;2023-11-21T01:43:18;32.65;;;13.68;;
68923;SDS011;55961;52.156;20.942;2023-11-21T01:45:44;31.90;;;13.75;;
68923;SDS011;55961;52.156;20.942;2023-11-21T01:48:13;28.98;;;11.68;;
68923;SDS011;55961;52.156;20.942;2023-11-21T01:50:39;37.30;;;14.53;;
68923;SDS011;55961;52.156;20.942;2023-11-21T01:53:06;35.33;;;13.90;;
68923;SDS011;55961;52.156;20.942;2023-11-21T01:55:32;32.67;;;12.80;;
68923;SDS011;55961;52.156;20.942;2023-11-21T01:57:59;35.47;;;13.45;;
68923;SDS011;55961;52.156;20.942;2023-11-21T02:00:25;35.47;;;13.60;;
68923;SDS011;55961;52.156;20.942;2023-11-21T02:02:53;30.52;;;12.57;;
68923;SDS011;55961;52.156;20.942;2023-11-21T02:05:19;32.38;;;12.63;;
68923;SDS011;55961;52.156;20.942;2023-11-21T02:07:47;36.13;;;13.90;;
68923;SDS011;55961;52.156;20.942;2023-11-21T02:10:13;34.73;;;14.27;;
68923;SDS011;55961;52.156;20.942;2023-11-21T02:12:43;32.50;;;13.43;;
68923;SDS011;55961;52.156;20.942;2023-11-21T02:15:10;33.75;;;13.00;;
68923;SDS011;55961;52.156;20.942;2023-11-21T02:17:41;34.95;;;14.00;;
68923;SDS011;55961;52.156;20.942;2023-11-21T02:20:13;28.58;;;12.10;;
68923;SDS011;55961;52.156;20.942;2023-11-21T02:22:43;32.47;;;13.10;;
68923;SDS011;55961;52.156;20.942;2023-11-21T02:25:23;32.22;;;13.30;;
68923;SDS011;55961;52.156;20.942;2023-11-21T02:27:50;35.38;;;13.35;;
68923;SDS011;55961;52.156;20.942;2023-11-21T02:30:16;32.55;;;13.27;;
68923;SDS011;55961;52.156;20.942;2023-11-21T02:32:42;30.52;;;13.18;;
68923;SDS011;55961;52.156;20.942;2023-11-21T02:35:08;34.50;;;13.47;;
68923;SDS011;55961;52.156;20.942;2023-11-21T02:37:34;34.53;;;13.25;;
68923;SDS011;55961;52.156;20.942;2023-11-21T02:40:01;30.88;;;12.75;;
68923;SDS011;55961;52.156;20.942;2023-11-21T02:42:31;27.60;;;11.20;;
68923;SDS011;55961;52.156;20.942;2023-11-21T02:44:57;30.45;;;13.02;;
68923;SDS011;55961;52.156;20.942;2023-11-21T02:47:23;28.77;;;11.45;;
68923;SDS011;55961;52.156;20.942;2023-11-21T02:49:49;24.63;;;11.52;;
68923;SDS011;55961;52.156;20.942;2023-11-21T02:52:18;26.97;;;11.63;;
68923;SDS011;55961;52.156;20.942;2023-11-21T02:54:44;28.50;;;12.48;;
68923;SDS011;55961;52.156;20.942;2023-11-21T02:57:10;26.63;;;11.55;;
68923;SDS011;55961;52.156;20.942;2023-11-21T02:59:36;23.50;;;10.93;;
68923;SDS011;55961;52.156;20.942;2023-11-21T03:02:02;24.17;;;10.70;;
68923;SDS011;55961;52.156;20.942;2023-11-21T03:04:28;26.85;;;11.07;;
68923;SDS011;55961;52.156;20.942;2023-11-21T03:06:54;25.92;;;10.98;;
68923;SDS011;55961;52.156;20.942;2023-11-21T03:09:20;23.93;;;11.20;;
68923;SDS011;55961;52.156;20.942;2023-11-21T03:11:46;23.57;;;10.43;;
68923;SDS011;55961;52.156;20.942;2023-11-21T03:14:12;22.23;;;10.50;;
68923;SDS011;55961;52.156;20.942;2023-11-21T03:16:38;22.77;;;11.45;;
68923;SDS011;55961;52.156;20.942;2023-11-21T03:19:04;24.60;;;11.05;;
68923;SDS011;55961;52.156;20.942;2023-11-21T03:21:30;25.63;;;11.30;;
68923;SDS011;55961;52.156;20.942;2023-11-21T03:23:56;24.90;;;11.43;;
68923;SDS011;55961;52.156;20.942;2023-11-21T03:26:22;25.13;;;10.68;;
68923;SDS011;55961;52.156;20.942;2023-11-21T03:28:48;22.27;;;10.70;;
68923;SDS011;55961;52.156;20.942;2023-11-21T03:31:15;26.47;;;11.37;;
68923;SDS011;55961;52.156;20.942;2023-11-21T03:33:42;24.20;;;11.20;;
68923;SDS011;55961;52.156;20.942;2023-11-21T03:36:08;23.17;;;10.93;;
68923;SDS011;55961;52.156;20.942;2023-11-21T03:38:34;23.02;;;9.50;;
68923;SDS011;55961;52.156;20.942;2023-11-21T03:41:01;24.02;;;11.32;;
68923;SDS011;55961;52.156;20.942;2023-11-21T03:43:27;21.67;;;10.20;;
68923;SDS011;55961;52.156;20.942;2023-11-21T03:46:00;25.33;;;10.48;;
68923;SDS011;55961;52.156;20.942;2023-11-21T03:48:26;26.17;;;11.10;;
68923;SDS011;55961;52.156;20.942;2023-11-21T03:50:52;26.00;;;12.05;;
68923;SDS011;55961;52.156;20.942;2023-11-21T03:53:17;25.73;;;11.70;;
68923;SDS011;55961;52.156;20.942;2023-11-21T03:55:44;26.75;;;11.45;;
68923;SDS011;55961;52.156;20.942;2023-11-21T03:58:09;26.38;;;11.35;;
68923;SDS011;55961;52.156;20.942;2023-11-21T04:00:35;27.27;;;11.65;;
68923;SDS011;55961;52.156;20.942;2023-11-21T04:03:01;25.27;;;10.67;;
68923;SDS011;55961;52.156;20.942;2023-11-21T04:05:27;24.25;;;10.55;;
68923;SDS011;55961;52.156;20.942;2023-11-21T04:07:53;26.50;;;11.37;;
68923;SDS011;55961;52.156;20.942;2023-11-21T04:10:19;24.02;;;10.70;;
68923;SDS011;55961;52.156;20.942;2023-11-21T04:12:45;25.40;;;11.55;;
68923;SDS011;55961;52.156;20.942;2023-11-21T04:15:11;24.23;;;11.13;;
68923;SDS011;55961;52.156;20.942;2023-11-21T04:17:38;25.27;;;10.55;;
68923;SDS011;55961;52.156;20.942;2023-11-21T04:20:05;26.40;;;10.13;;
68923;SDS011;55961;52.156;20.942;2023-11-21T04:22:41;28.23;;;10.50;;
68923;SDS011;55961;52.156;20.942;2023-11-21T04:25:09;23.00;;;9.93;;
68923;SDS011;55961;52.156;20.942;2023-11-21T04:27:36;23.13;;;10.50;;
68923;SDS011;55961;52.156;20.942;2023-11-21T04:30:04;24.38;;;9.85;;
68923;SDS011;55961;52.156;20.942;2023-11-21T04:32:31;23.43;;;10.30;;
68923;SDS011;55961;52.156;20.942;2023-11-21T04:34:57;20.90;;;8.38;;
68923;SDS011;55961;52.156;20.942;2023-11-21T04:37:23;24.55;;;8.93;;
68923;SDS011;55961;52.156;20.942;2023-11-21T04:39:50;20.65;;;8.65;;
68923;SDS011;55961;52.156;20.942;2023-11-21T04:42:15;17.63;;;7.63;;
68923;SDS011;55961;52.156;20.942;2023-11-21T04:44:41;19.80;;;8.48;;
68923;SDS011;55961;52.156;20.942;2023-11-21T04:47:09;21.13;;;9.20;;
68923;SDS011;55961;52.156;20.942;2023-11-21T04:49:35;18.00;;;8.65;;
68923;SDS011;55961;52.156;20.942;2023-11-21T04:52:01;18.90;;;8.27;;
68923;SDS011;55961;52.156;20.942;2023-11-21T04:54:30;19.00;;;8.88;;
68923;SDS011;55961;52.156;20.942;2023-11-21T04:56:56;19.88;;;8.48;;
68923;SDS011;55961;52.156;20.942;2023-11-21T04:59:22;19.77;;;8.35;;
68923;SDS011;55961;52.156;20.942;2023-11-21T05:01:52;15.73;;;7.05;;
68923;SDS011;55961;52.156;20.942;2023-11-21T05:04:19;19.13;;;8.37;;
68923;SDS011;55961;52.156;20.942;2023-11-21T05:06:47;17.38;;;8.05;;
68923;SDS011;55961;52.156;20.942;2023-11-21T05:09:14;19.02;;;8.20;;
68923;SDS011;55961;52.156;20.942;2023-11-21T05:11:41;16.75;;;7.20;;
68923;SDS011;55961;52.156;20.942;2023-11-21T05:14:07;15.32;;;7.82;;
68923;SDS011;55961;52.156;20.942;2023-11-21T05:16:34;15.90;;;7.30;;
68923;SDS011;55961;52.156;20.942;2023-11-21T05:19:00;16.08;;;7.28;;
68923;SDS011;55961;52.156;20.942;2023-11-21T05:21:27;18.50;;;8.25;;
68923;SDS011;55961;52.156;20.942;2023-11-21T05:23:54;19.83;;;7.90;;
68923;SDS011;55961;52.156;20.942;2023-11-21T05:26:21;22.88;;;10.50;;
68923;SDS011;55961;52.156;20.942;2023-11-21T05:28:46;22.27;;;9.40;;
68923;SDS011;55961;52.156;20.942;2023-11-21T05:31:13;16.25;;;7.63;;
68923;SDS011;55961;52.156;20.942;2023-11-21T05:33:39;15.50;;;6.88;;
68923;SDS011;55961;52.156;20.942;2023-11-21T05:36:06;16.38;;;7.65;;
68923;SDS011;55961;52.156;20.942;2023-11-21T05:38:34;17.48;;;7.55;;
68923;SDS011;55961;52.156;20.942;2023-11-21T05:41:01;16.47;;;7.00;;
68923;SDS011;55961;52.156;20.942;2023-11-21T05:43:27;21.33;;;8.60;;
68923;SDS011;55961;52.156;20.942;2023-11-21T05:45:55;18.85;;;8.63;;
68923;SDS011;55961;52.156;20.942;2023-11-21T05:48:21;17.63;;;7.38;;
68923;SDS011;55961;52.156;20.942;2023-11-21T05:50:47;17.88;;;7.75;;
68923;SDS011;55961;52.156;20.942;2023-11-21T05:53:15;17.20;;;6.93;;
68923;SDS011;55961;52.156;20.942;2023-11-21T05:55:42;14.55;;;6.63;;
68923;SDS011;55961;52.156;20.942;2023-11-21T05:58:08;18.15;;;8.90;;
68923;SDS011;55961;52.156;20.942;2023-11-21T06:00:34;27.30;;;14.17;;
68923;SDS011;55961;52.156;20.942;2023-11-21T06:03:00;27.63;;;13.10;;
68923;SDS011;55961;52.156;20.942;2023-11-21T06:05:26;18.13;;;8.55;;
68923;SDS011;55961;52.156;20.942;2023-11-21T06:07:53;19.23;;;7.93;;
68923;SDS011;55961;52.156;20.942;2023-11-21T06:10:20;20.80;;;10.82;;
68923;SDS011;55961;52.156;20.942;2023-11-21T06:12:47;20.83;;;8.97;;
68923;SDS011;55961;52.156;20.942;2023-11-21T06:15:13;17.05;;;7.70;;
68923;SDS011;55961;52.156;20.942;2023-11-21T06:17:40;13.90;;;6.38;;
68923;SDS011;55961;52.156;20.942;2023-11-21T06:20:08;17.80;;;7.15;;
68923;SDS011;55961;52.156;20.942;2023-11-21T06:22:36;17.83;;;7.78;;
68923;SDS011;55961;52.156;20.942;2023-11-21T06:25:03;17.00;;;6.73;;
68923;SDS011;55961;52.156;20.942;2023-11-21T06:27:40;14.45;;;6.70;;
68923;SDS011;55961;52.156;20.942;2023-11-21T06:30:10;13.88;;;6.70;;
68923;SDS011;55961;52.156;20.942;2023-11-21T06:32:38;17.15;;;7.22;;
68923;SDS011;55961;52.156;20.942;2023-11-21T06:35:05;15.73;;;7.45;;
68923;SDS011;55961;52.156;20.942;2023-11-21T06:37:33;15.70;;;7.10;;
68923;SDS011;55961;52.156;20.942;2023-11-21T06:39:59;14.25;;;6.07;;
68923;SDS011;55961;52.156;20.942;2023-11-21T06:42:26;16.58;;;6.97;;
68923;SDS011;55961;52.156;20.942;2023-11-21T06:44:53;16.80;;;7.65;;
68923;SDS011;55961;52.156;20.942;2023-11-21T06:47:19;15.60;;;7.28;;
68923;SDS011;55961;52.156;20.942;2023-11-21T06:49:46;15.57;;;7.27;;
68923;SDS011;55961;52.156;20.942;2023-11-21T06:52:13;14.90;;;6.75;;
68923;SDS011;55961;52.156;20.942;2023-11-21T06:54:39;14.35;;;6.22;;
68923;SDS011;55961;52.156;20.942;2023-11-21T06:57:05;14.87;;;6.63;;
68923;SDS011;55961;52.156;20.942;2023-11-21T06:59:31;15.73;;;6.60;;
68923;SDS011;55961;52.156;20.942;2023-11-21T07:01:57;14.07;;;7.00;;
68923;SDS011;55961;52.156;20.942;2023-11-21T07:04:23;17.35;;;6.22;;
68923;SDS011;55961;52.156;20.942;2023-11-21T07:06:51;15.00;;;5.97;;
68923;SDS011;55961;52.156;20.942;2023-11-21T07:09:18;16.70;;;7.32;;
68923;SDS011;55961;52.156;20.942;2023-11-21T07:11:50;17.48;;;6.75;;
68923;SDS011;55961;52.156;20.942;2023-11-21T07:14:16;20.30;;;7.68;;
68923;SDS011;55961;52.156;20.942;2023-11-21T07:16:44;15.50;;;6.90;;
68923;SDS011;55961;52.156;20.942;2023-11-21T07:19:11;16.33;;;7.23;;
68923;SDS011;55961;52.156;20.942;2023-11-21T07:21:37;15.23;;;6.80;;
68923;SDS011;55961;52.156;20.942;2023-11-21T07:24:05;16.88;;;7.03;;
68923;SDS011;55961;52.156;20.942;2023-11-21T07:26:32;15.55;;;6.85;;
68923;SDS011;55961;52.156;20.942;2023-11-21T07:28:59;16.23;;;7.22;;
68923;SDS011;55961;52.156;20.942;2023-11-21T07:31:25;15.87;;;6.80;;
68923;SDS011;55961;52.156;20.942;2023-11-21T07:33:52;17.00;;;7.13;;
68923;SDS011;55961;52.156;20.942;2023-11-21T07:36:18;15.27;;;7.00;;
68923;SDS011;55961;52.156;20.942;2023-11-21T07:38:46;17.75;;;7.60;;
68923;SDS011;55961;52.156;20.942;2023-11-21T07:41:13;17.95;;;8.13;;
68923;SDS011;55961;52.156;20.942;2023-11-21T07:43:43;19.60;;;7.77;;
68923;SDS011;55961;52.156;20.942;2023-11-21T07:46:10;16.67;;;7.78;;
68923;SDS011;55961;52.156;20.942;2023-11-21T07:48:38;17.38;;;7.70;;
68923;SDS011;55961;52.156;20.942;2023-11-21T07:51:04;19.67;;;7.80;;
68923;SDS011;55961;52.156;20.942;2023-11-21T07:53:32;17.27;;;7.85;;
68923;SDS011;55961;52.156;20.942;2023-11-21T07:55:58;18.93;;;7.87;;
68923;SDS011;55961;52.156;20.942;2023-11-21T07:58:29;17.83;;;7.38;;
68923;SDS011;55961;52.156;20.942;2023-11-21T08:00:54;17.77;;;8.02;;
68923;SDS011;55961;52.156;20.942;2023-11-21T08:03:20;16.37;;;6.20;;
68923;SDS011;55961;52.156;20.942;2023-11-21T08:05:47;16.20;;;6.82;;
68923;SDS011;55961;52.156;20.942;2023-11-21T08:08:13;16.58;;;6.88;;
68923;SDS011;55961;52.156;20.942;2023-11-21T08:10:38;17.53;;;6.67;;
68923;SDS011;55961;52.156;20.942;2023-11-21T08:13:05;15.73;;;6.78;;
68923;SDS011;55961;52.156;20.942;2023-11-21T08:15:31;19.35;;;7.95;;
68923;SDS011;55961;52.156;20.942;2023-11-21T08:17:58;19.15;;;7.72;;
68923;SDS011;55961;52.156;20.942;2023-11-21T08:20:24;15.50;;;7.00;;
68923;SDS011;55961;52.156;20.942;2023-11-21T08:22:50;18.33;;;7.50;;
68923;SDS011;55961;52.156;20.942;2023-11-21T08:25:22;15.43;;;7.07;;
68923;SDS011;55961;52.156;20.942;2023-11-21T08:27:48;17.65;;;7.32;;
68923;SDS011;55961;52.156;20.942;2023-11-21T08:30:14;13.85;;;6.55;;
68923;SDS011;55961;52.156;20.942;2023-11-21T08:32:42;15.25;;;6.30;;
68923;SDS011;55961;52.156;20.942;2023-11-21T08:35:08;16.93;;;6.63;;
68923;SDS011;55961;52.156;20.942;2023-11-21T08:37:34;15.55;;;6.50;;
68923;SDS011;55961;52.156;20.942;2023-11-21T08:40:04;14.00;;;6.15;;
68923;SDS011;55961;52.156;20.942;2023-11-21T08:42:35;15.90;;;6.47;;
68923;SDS011;55961;52.156;20.942;2023-11-21T08:45:01;14.85;;;6.63;;
68923;SDS011;55961;52.156;20.942;2023-11-21T08:47:27;17.07;;;7.10;;
68923;SDS011;55961;52.156;20.942;2023-11-21T08:49:53;18.73;;;7.57;;
68923;SDS011;55961;52.156;20.942;2023-11-21T08:52:19;15.35;;;6.90;;
68923;SDS011;55961;52.156;20.942;2023-11-21T08:54:51;16.27;;;7.03;;
68923;SDS011;55961;52.156;20.942;2023-11-21T08:57:24;15.90;;;6.90;;
68923;SDS011;55961;52.156;20.942;2023-11-21T08:59:50;18.52;;;6.78;;
68923;SDS011;55961;52.156;20.942;2023-11-21T09:02:21;18.08;;;7.20;;
68923;SDS011;55961;52.156;20.942;2023-11-21T09:04:50;13.18;;;5.57;;
68923;SDS011;55961;52.156;20.942;2023-11-21T09:07:18;18.35;;;6.75;;
68923;SDS011;55961;52.156;20.942;2023-11-21T09:09:46;14.93;;;7.00;;
68923;SDS011;55961;52.156;20.942;2023-11-21T09:12:13;15.40;;;7.00;;
68923;SDS011;55961;52.156;20.942;2023-11-21T09:14:39;19.38;;;8.05;;
68923;SDS011;55961;52.156;20.942;2023-11-21T09:17:05;16.38;;;7.20;;
68923;SDS011;55961;52.156;20.942;2023-11-21T09:19:36;13.77;;;6.65;;
68923;SDS011;55961;52.156;20.942;2023-11-21T09:22:03;16.40;;;8.03;;
68923;SDS011;55961;52.156;20.942;2023-11-21T09:24:30;16.73;;;7.68;;
68923;SDS011;55961;52.156;20.942;2023-11-21T09:27:00;15.77;;;7.45;;
68923;SDS011;55961;52.156;20.942;2023-11-21T09:29:26;18.42;;;7.72;;
68923;SDS011;55961;52.156;20.942;2023-11-21T09:31:52;16.63;;;7.70;;
68923;SDS011;55961;52.156;20.942;2023-11-21T09:34:20;15.93;;;7.27;;
68923;SDS011;55961;52.156;20.942;2023-11-21T09:36:47;18.88;;;7.78;;
68923;SDS011;55961;52.156;20.942;2023-11-21T09:39:13;17.38;;;7.80;;
68923;SDS011;55961;52.156;20.942;2023-11-21T09:41:44;14.95;;;7.53;;
68923;SDS011;55961;52.156;20.942;2023-11-21T09:44:17;17.83;;;8.00;;
68923;SDS011;55961;52.156;20.942;2023-11-21T09:46:47;15.30;;;6.93;;
68923;SDS011;55961;52.156;20.942;2023-11-21T09:49:17;16.10;;;6.75;;
68923;SDS011;55961;52.156;20.942;2023-11-21T09:51:46;14.90;;;6.90;;
68923;SDS011;55961;52.156;20.942;2023-11-21T09:54:13;17.67;;;8.00;;
68923;SDS011;55961;52.156;20.942;2023-11-21T09:56:43;17.10;;;7.60;;
68923;SDS011;55961;52.156;20.942;2023-11-21T09:59:10;16.23;;;7.77;;
68923;SDS011;55961;52.156;20.942;2023-11-21T10:01:41;18.02;;;8.48;;
68923;SDS011;55961;52.156;20.942;2023-11-21T10:04:10;21.67;;;8.30;;
68923;SDS011;55961;52.156;20.942;2023-11-21T10:06:39;21.15;;;9.27;;
68923;SDS011;55961;52.156;20.942;2023-11-21T10:09:11;19.52;;;8.73;;
68923;SDS011;55961;52.156;20.942;2023-11-21T10:11:39;18.10;;;8.30;;
68923;SDS011;55961;52.156;20.942;2023-11-21T10:14:12;17.23;;;7.97;;
68923;SDS011;55961;52.156;20.942;2023-11-21T10:16:40;19.25;;;8.25;;
68923;SDS011;55961;52.156;20.942;2023-11-21T10:19:11;15.70;;;7.55;;
68923;SDS011;55961;52.156;20.942;2023-11-21T10:21:41;19.13;;;7.72;;
68923;SDS011;55961;52.156;20.942;2023-11-21T10:24:07;17.93;;;8.47;;
68923;SDS011;55961;52.156;20.942;2023-11-21T10:26:33;17.65;;;7.43;;
68923;SDS011;55961;52.156;20.942;2023-11-21T10:29:01;19.55;;;8.27;;
68923;SDS011;55961;52.156;20.942;2023-11-21T10:31:31;18.67;;;8.43;;
68923;SDS011;55961;52.156;20.942;2023-11-21T10:34:13;20.63;;;8.83;;
68923;SDS011;55961;52.156;20.942;2023-11-21T10:36:40;17.45;;;8.07;;
68923;SDS011;55961;52.156;20.942;2023-11-21T10:39:07;17.55;;;7.75;;
68923;SDS011;55961;52.156;20.942;2023-11-21T10:41:33;16.20;;;8.00;;
68923;SDS011;55961;52.156;20.942;2023-11-21T10:44:00;15.40;;;6.72;;
68923;SDS011;55961;52.156;20.942;2023-11-21T10:46:29;16.50;;;8.30;;
68923;SDS011;55961;52.156;20.942;2023-11-21T10:48:55;18.73;;;8.40;;
68923;SDS011;55961;52.156;20.942;2023-11-21T10:51:22;15.10;;;7.18;;
68923;SDS011;55961;52.156;20.942;2023-11-21T10:53:51;27.30;;;14.50;;
68923;SDS011;55961;52.156;20.942;2023-11-21T10:56:18;19.77;;;12.50;;
68923;SDS011;55961;52.156;20.942;2023-11-21T10:58:47;18.80;;;8.17;;
68923;SDS011;55961;52.156;20.942;2023-11-21T11:01:15;14.82;;;7.30;;
68923;SDS011;55961;52.156;20.942;2023-11-21T11:03:44;20.45;;;8.55;;
68923;SDS011;55961;52.156;20.942;2023-11-21T11:06:10;18.77;;;7.45;;
68923;SDS011;55961;52.156;20.942;2023-11-21T11:08:38;15.77;;;7.50;;
68923;SDS011;55961;52.156;20.942;2023-11-21T11:11:05;20.03;;;8.30;;
68923;SDS011;55961;52.156;20.942;2023-11-21T11:13:32;17.35;;;7.60;;
68923;SDS011;55961;52.156;20.942;2023-11-21T11:15:58;17.80;;;7.82;;
68923;SDS011;55961;52.156;20.942;2023-11-21T11:18:29;18.30;;;7.50;;
68923;SDS011;55961;52.156;20.942;2023-11-21T11:21:16;17.30;;;7.60;;
68923;SDS011;55961;52.156;20.942;2023-11-21T11:23:59;14.30;;;6.70;;
68923;SDS011;55961;52.156;20.942;2023-11-21T11:29:14;12.80;;;6.13;;
68923;SDS011;55961;52.156;20.942;2023-11-21T11:34:35;17.67;;;7.88;;
68923;SDS011;55961;52.156;20.942;2023-11-21T11:37:15;19.03;;;8.03;;
68923;SDS011;55961;52.156;20.942;2023-11-21T11:39:42;19.02;;;8.27;;
68923;SDS011;55961;52.156;20.942;2023-11-21T11:42:12;17.27;;;8.40;;
68923;SDS011;55961;52.156;20.942;2023-11-21T11:47:24;15.77;;;8.02;;
68923;SDS011;55961;52.156;20.942;2023-11-21T11:55:09;23.52;;;8.93;;
68923;SDS011;55961;52.156;20.942;2023-11-21T11:57:37;16.88;;;7.75;;
68923;SDS011;55961;52.156;20.942;2023-11-21T12:00:07;18.85;;;8.02;;
68923;SDS011;55961;52.156;20.942;2023-11-21T12:02:47;16.17;;;6.07;;
68923;SDS011;55961;52.156;20.942;2023-11-21T12:05:15;19.70;;;9.68;;
68923;SDS011;55961;52.156;20.942;2023-11-21T12:07:45;15.98;;;7.93;;
68923;SDS011;55961;52.156;20.942;2023-11-21T12:10:13;16.95;;;8.13;;
68923;SDS011;55961;52.156;20.942;2023-11-21T12:12:47;18.50;;;8.07;;
68923;SDS011;55961;52.156;20.942;2023-11-21T12:15:20;18.57;;;8.57;;
68923;SDS011;55961;52.156;20.942;2023-11-21T12:17:48;19.00;;;8.57;;
68923;SDS011;55961;52.156;20.942;2023-11-21T12:20:15;20.42;;;9.18;;
68923;SDS011;55961;52.156;20.942;2023-11-21T12:22:45;19.23;;;9.07;;
68923;SDS011;55961;52.156;20.942;2023-11-21T12:25:15;21.83;;;8.02;;
68923;SDS011;55961;52.156;20.942;2023-11-21T12:27:46;17.03;;;8.30;;
68923;SDS011;55961;52.156;20.942;2023-11-21T12:30:15;19.60;;;8.90;;
68923;SDS011;55961;52.156;20.942;2023-11-21T12:32:43;15.90;;;7.43;;
68923;SDS011;55961;52.156;20.942;2023-11-21T12:35:11;17.83;;;9.38;;
68923;SDS011;55961;52.156;20.942;2023-11-21T12:37:38;20.60;;;9.43;;
68923;SDS011;55961;52.156;20.942;2023-11-21T12:40:08;18.30;;;8.63;;
68923;SDS011;55961;52.156;20.942;2023-11-21T12:42:41;18.52;;;8.60;;
68923;SDS011;55961;52.156;20.942;2023-11-21T12:47:46;19.33;;;8.70;;
68923;SDS011;55961;52.156;20.942;2023-11-21T12:50:22;20.27;;;8.32;;
68923;SDS011;55961;52.156;20.942;2023-11-21T12:52:55;21.20;;;8.50;;
68923;SDS011;55961;52.156;20.942;2023-11-21T12:55:24;17.73;;;8.48;;
68923;SDS011;55961;52.156;20.942;2023-11-21T12:57:52;17.92;;;7.75;;
68923;SDS011;55961;52.156;20.942;2023-11-21T13:00:29;18.85;;;8.02;;
68923;SDS011;55961;52.156;20.942;2023-11-21T13:02:59;17.83;;;8.07;;
68923;SDS011;55961;52.156;20.942;2023-11-21T13:07:59;18.40;;;8.55;;
68923;SDS011;55961;52.156;20.942;2023-11-21T13:10:29;21.00;;;9.32;;
68923;SDS011;55961;52.156;20.942;2023-11-21T13:12:57;22.33;;;9.13;;
68923;SDS011;55961;52.156;20.942;2023-11-21T13:15:24;24.50;;;9.15;;
68923;SDS011;55961;52.156;20.942;2023-11-21T13:17:50;19.93;;;9.43;;
68923;SDS011;55961;52.156;20.942;2023-11-21T13:20:17;19.27;;;8.27;;
68923;SDS011;55961;52.156;20.942;2023-11-21T13:22:49;18.45;;;8.35;;
68923;SDS011;55961;52.156;20.942;2023-11-21T13:25:28;21.23;;;9.93;;
68923;SDS011;55961;52.156;20.942;2023-11-21T13:27:55;17.20;;;8.00;;
68923;SDS011;55961;52.156;20.942;2023-11-21T13:30:21;20.43;;;10.03;;
68923;SDS011;55961;52.156;20.942;2023-11-21T13:32:52;20.90;;;9.55;;
68923;SDS011;55961;52.156;20.942;2023-11-21T13:35:22;17.38;;;8.27;;
68923;SDS011;55961;52.156;20.942;2023-11-21T13:38:04;19.67;;;9.43;;
68923;SDS011;55961;52.156;20.942;2023-11-21T13:40:31;18.45;;;8.35;;
68923;SDS011;55961;52.156;20.942;2023-11-21T13:43:00;21.37;;;9.87;;
68923;SDS011;55961;52.156;20.942;2023-11-21T13:45:29;17.85;;;8.55;;
68923;SDS011;55961;52.156;20.942;2023-11-21T13:47:56;18.98;;;9.25;;
68923;SDS011;55961;52.156;20.942;2023-11-21T13:50:24;19.42;;;9.10;;
68923;SDS011;55961;52.156;20.942;2023-11-21T13:52:57;21.05;;;9.55;;
68923;SDS011;55961;52.156;20.942;2023-11-21T13:55:23;22.00;;;9.63;;
68923;SDS011;55961;52.156;20.942;2023-11-21T13:57:50;20.13;;;9.02;;
68923;SDS011;55961;52.156;20.942;2023-11-21T14:00:16;19.73;;;8.98;;
68923;SDS011;55961;52.156;20.942;2023-11-21T14:03:01;20.00;;;8.25;;
68923;SDS011;55961;52.156;20.942;2023-11-21T14:05:30;19.13;;;9.10;;
68923;SDS011;55961;52.156;20.942;2023-11-21T14:07:57;18.13;;;9.23;;
68923;SDS011;55961;52.156;20.942;2023-11-21T14:10:29;19.58;;;9.80;;
68923;SDS011;55961;52.156;20.942;2023-11-21T14:13:06;18.45;;;8.38;;
68923;SDS011;55961;52.156;20.942;2023-11-21T14:15:32;20.95;;;9.88;;
68923;SDS011;55961;52.156;20.942;2023-11-21T14:18:02;17.85;;;8.07;;
68923;SDS011;55961;52.156;20.942;2023-11-21T14:20:33;23.67;;;9.43;;
68923;SDS011;55961;52.156;20.942;2023-11-21T14:23:01;21.67;;;9.80;;
68923;SDS011;55961;52.156;20.942;2023-11-21T14:25:28;18.02;;;9.00;;
68923;SDS011;55961;52.156;20.942;2023-11-21T14:27:54;28.23;;;11.13;;
68923;SDS011;55961;52.156;20.942;2023-11-21T14:30:21;22.20;;;11.65;;
68923;SDS011;55961;52.156;20.942;2023-11-21T14:32:48;25.13;;;10.63;;
68923;SDS011;55961;52.156;20.942;2023-11-21T14:35:15;25.02;;;10.80;;
68923;SDS011;55961;52.156;20.942;2023-11-21T14:37:42;23.67;;;10.93;;